Terminal Aerodrome Forecast
Issued by NWS

Home | Current Version | Previous Version | Graphics & Text | Print | Product List | Glossary On
Versions: 1 2 3 4 5 6 7 8 9 10 11 12 13 14 15 16 17 18 19 20 21 22 23 24 25 26 27 28 29 30 31 32 33 34
325
FTUS43 KGRB 291733
TAFATW
TAF
KATW 291733Z 2918/3018 04012G18KT P6SM SCT050 BKN150
     FM300100 06012G21KT P6SM -RA OVC060
     FM300800 06013G22KT P6SM -RA OVC020
     FM301000 06013G22KT P6SM -RA OVC012
     FM301200 06012G22KT 5SM -RA OVC007
     FM301500 06012G24KT 4SM -RA OVC005=

USA.gov is the U.S. government's official web portal to all federal, state and local government web resources and services.